sensor_id;sensor_type;location;lat;lon;timestamp;pressure;altitude;pressure_sealevel;temperature;humidity
23118;BME280;11728;50.624;6.014;2022-08-07T00:04:18;99275.19;;;12.60;71.79
23118;BME280;11728;50.624;6.014;2022-08-07T00:09:20;99278.88;;;12.52;72.22
23118;BME280;11728;50.624;6.014;2022-08-07T00:14:20;99261.19;;;12.52;72.16
23118;BME280;11728;50.624;6.014;2022-08-07T00:19:21;99253.31;;;12.49;72.02
23118;BME280;11728;50.624;6.014;2022-08-07T00:24:21;99244.50;;;12.47;72.29
23118;BME280;11728;50.624;6.014;2022-08-07T00:29:22;99246.31;;;12.44;72.47
23118;BME280;11728;50.624;6.014;2022-08-07T00:34:26;99240.22;;;12.37;72.94
23118;BME280;11728;50.624;6.014;2022-08-07T00:39:26;99240.34;;;12.28;73.53
23118;BME280;11728;50.624;6.014;2022-08-07T00:44:27;99232.59;;;12.17;74.36
23118;BME280;11728;50.624;6.014;2022-08-07T00:49:28;99235.25;;;12.14;74.46
23118;BME280;11728;50.624;6.014;2022-08-07T00:54:28;99231.78;;;12.12;74.82
23118;BME280;11728;50.624;6.014;2022-08-07T00:59:29;99223.16;;;11.98;75.76
23118;BME280;11728;50.624;6.014;2022-08-07T01:04:31;99217.16;;;11.85;76.41
23118;BME280;11728;50.624;6.014;2022-08-07T01:09:32;99215.47;;;11.78;76.73
23118;BME280;11728;50.624;6.014;2022-08-07T01:14:33;99212.91;;;11.71;77.41
23118;BME280;11728;50.624;6.014;2022-08-07T01:19:34;99208.66;;;11.58;78.09
23118;BME280;11728;50.624;6.014;2022-08-07T01:24:35;99205.22;;;11.51;78.46
23118;BME280;11728;50.624;6.014;2022-08-07T01:29:37;99203.53;;;11.43;79.61
23118;BME280;11728;50.624;6.014;2022-08-07T01:34:38;99211.47;;;11.40;79.86
23118;BME280;11728;50.624;6.014;2022-08-07T01:39:44;99208.88;;;11.39;79.93
23118;BME280;11728;50.624;6.014;2022-08-07T01:44:51;99210.66;;;11.38;79.51
23118;BME280;11728;50.624;6.014;2022-08-07T01:49:52;99211.59;;;11.31;79.73
23118;BME280;11728;50.624;6.014;2022-08-07T01:54:53;99206.41;;;11.22;79.96
23118;BME280;11728;50.624;6.014;2022-08-07T02:00:02;99207.25;;;11.26;79.55
23118;BME280;11728;50.624;6.014;2022-08-07T02:05:17;99208.97;;;11.28;79.71
23118;BME280;11728;50.624;6.014;2022-08-07T02:10:24;99203.78;;;11.19;80.27
23118;BME280;11728;50.624;6.014;2022-08-07T02:15:26;99214.50;;;11.07;81.08
23118;BME280;11728;50.624;6.014;2022-08-07T02:20:30;99218.97;;;11.01;81.57
23118;BME280;11728;50.624;6.014;2022-08-07T02:25:35;99221.53;;;11.08;81.51
23118;BME280;11728;50.624;6.014;2022-08-07T02:30:38;99205.66;;;11.07;81.33
23118;BME280;11728;50.624;6.014;2022-08-07T02:35:39;99206.63;;;11.00;81.68
23118;BME280;11728;50.624;6.014;2022-08-07T02:40:42;99209.31;;;10.95;82.04
23118;BME280;11728;50.624;6.014;2022-08-07T02:45:44;99203.28;;;10.83;82.17
23118;BME280;11728;50.624;6.014;2022-08-07T02:50:48;99207.72;;;10.79;82.58
23118;BME280;11728;50.624;6.014;2022-08-07T02:55:52;99194.47;;;10.82;82.42
23118;BME280;11728;50.624;6.014;2022-08-07T03:00:56;99191.88;;;10.78;82.62
23118;BME280;11728;50.624;6.014;2022-08-07T03:05:58;99196.34;;;10.72;82.94
23118;BME280;11728;50.624;6.014;2022-08-07T03:11:01;99194.59;;;10.68;83.08
23118;BME280;11728;50.624;6.014;2022-08-07T03:16:15;99196.38;;;10.66;82.87
23118;BME280;11728;50.624;6.014;2022-08-07T03:21:16;99190.22;;;10.68;82.55
23118;BME280;11728;50.624;6.014;2022-08-07T03:26:18;99188.47;;;10.66;82.65
23118;BME280;11728;50.624;6.014;2022-08-07T03:31:21;99198.25;;;10.52;83.51
23118;BME280;11728;50.624;6.014;2022-08-07T03:36:28;99183.38;;;10.40;84.46
23118;BME280;11728;50.624;6.014;2022-08-07T03:41:30;99184.31;;;10.39;84.53
23118;BME280;11728;50.624;6.014;2022-08-07T03:46:32;99182.53;;;10.40;84.10
23118;BME280;11728;50.624;6.014;2022-08-07T03:51:34;99180.81;;;10.34;84.52
23118;BME280;11728;50.624;6.014;2022-08-07T03:56:36;99180.00;;;10.25;84.58
23118;BME280;11728;50.624;6.014;2022-08-07T04:01:41;99181.78;;;10.21;84.40
23118;BME280;11728;50.624;6.014;2022-08-07T04:06:42;99182.66;;;10.22;84.31
23118;BME280;11728;50.624;6.014;2022-08-07T04:11:49;99183.56;;;10.19;84.14
23118;BME280;11728;50.624;6.014;2022-08-07T04:16:51;99181.84;;;10.15;84.43
23118;BME280;11728;50.624;6.014;2022-08-07T04:21:53;99188.88;;;10.13;83.65
23118;BME280;11728;50.624;6.014;2022-08-07T04:26:54;99188.88;;;10.15;83.64
23118;BME280;11728;50.624;6.014;2022-08-07T04:31:55;99182.75;;;10.10;83.83
23118;BME280;11728;50.624;6.014;2022-08-07T04:36:57;99185.38;;;10.10;83.75
23118;BME280;11728;50.624;6.014;2022-08-07T04:42:01;99185.41;;;10.08;83.82
23118;BME280;11728;50.624;6.014;2022-08-07T04:47:08;99181.81;;;10.17;83.46
23118;BME280;11728;50.624;6.014;2022-08-07T04:52:45;99187.84;;;10.32;82.61
23118;BME280;11728;50.624;6.014;2022-08-07T05:08:27;99190.97;;;10.80;80.20
23118;BME280;11728;50.624;6.014;2022-08-07T05:13:35;99196.06;;;11.01;79.10
23118;BME280;11728;50.624;6.014;2022-08-07T05:18:42;99194.78;;;11.38;77.96
23118;BME280;11728;50.624;6.014;2022-08-07T05:24:02;99202.03;;;11.92;76.07
23118;BME280;11728;50.624;6.014;2022-08-07T05:29:06;99200.69;;;12.26;74.21
23118;BME280;11728;50.624;6.014;2022-08-07T05:34:10;99195.81;;;12.54;73.24
23118;BME280;11728;50.624;6.014;2022-08-07T05:39:14;99201.75;;;12.68;72.50
23118;BME280;11728;50.624;6.014;2022-08-07T05:44:17;99197.72;;;12.99;71.33
23118;BME280;11728;50.624;6.014;2022-08-07T05:49:21;99200.53;;;13.37;70.00
23118;BME280;11728;50.624;6.014;2022-08-07T05:54:24;99199.84;;;13.71;69.13
23118;BME280;11728;50.624;6.014;2022-08-07T05:59:25;99207.13;;;14.02;68.22
23118;BME280;11728;50.624;6.014;2022-08-07T06:04:36;99204.97;;;14.57;66.36
23118;BME280;11728;50.624;6.014;2022-08-07T06:09:39;99212.66;;;15.04;64.60
23118;BME280;11728;50.624;6.014;2022-08-07T06:14:41;99211.34;;;15.53;63.31
23118;BME280;11728;50.624;6.014;2022-08-07T06:19:42;99201.78;;;16.07;61.92
23118;BME280;11728;50.624;6.014;2022-08-07T06:24:44;99200.78;;;16.67;60.40
23118;BME280;11728;50.624;6.014;2022-08-07T06:29:44;99208.53;;;17.27;58.36
23118;BME280;11728;50.624;6.014;2022-08-07T06:34:45;99205.13;;;17.71;56.72
23118;BME280;11728;50.624;6.014;2022-08-07T06:39:46;99203.53;;;18.13;56.10
23118;BME280;11728;50.624;6.014;2022-08-07T06:44:49;99209.28;;;18.69;55.49
23118;BME280;11728;50.624;6.014;2022-08-07T06:49:51;99198.75;;;19.29;53.66
23118;BME280;11728;50.624;6.014;2022-08-07T06:54:54;99198.69;;;19.90;52.77
23118;BME280;11728;50.624;6.014;2022-08-07T06:59:56;99198.78;;;20.27;52.10
23118;BME280;11728;50.624;6.014;2022-08-07T07:04:58;99193.25;;;20.48;52.58
23118;BME280;11728;50.624;6.014;2022-08-07T07:09:59;99195.50;;;21.11;51.54
23118;BME280;11728;50.624;6.014;2022-08-07T07:15:05;99192.13;;;21.75;50.70
23118;BME280;11728;50.624;6.014;2022-08-07T07:20:15;99180.38;;;22.25;49.28
23118;BME280;11728;50.624;6.014;2022-08-07T07:25:18;99178.88;;;22.83;48.14
23118;BME280;11728;50.624;6.014;2022-08-07T07:30:24;99186.09;;;23.42;46.19
23118;BME280;11728;50.624;6.014;2022-08-07T07:35:27;99180.84;;;23.98;43.59
23118;BME280;11728;50.624;6.014;2022-08-07T07:40:29;99175.84;;;24.48;42.26
23118;BME280;11728;50.624;6.014;2022-08-07T07:45:31;99175.34;;;25.09;40.17
23118;BME280;11728;50.624;6.014;2022-08-07T07:50:32;99170.78;;;26.00;38.14
23118;BME280;11728;50.624;6.014;2022-08-07T07:55:32;99165.25;;;26.87;36.36
23118;BME280;11728;50.624;6.014;2022-08-07T08:00:34;99160.19;;;27.52;34.48
23118;BME280;11728;50.624;6.014;2022-08-07T08:05:37;99163.75;;;28.43;33.02
23118;BME280;11728;50.624;6.014;2022-08-07T08:10:38;99159.88;;;29.11;31.49
23118;BME280;11728;50.624;6.014;2022-08-07T08:15:39;99156.56;;;29.39;30.58
23118;BME280;11728;50.624;6.014;2022-08-07T08:20:42;99155.44;;;30.14;29.50
23118;BME280;11728;50.624;6.014;2022-08-07T08:25:45;99156.59;;;30.11;29.57
23118;BME280;11728;50.624;6.014;2022-08-07T08:31:08;99143.72;;;30.23;29.64
23118;BME280;11728;50.624;6.014;2022-08-07T08:36:10;99143.31;;;30.57;28.63
23118;BME280;11728;50.624;6.014;2022-08-07T08:41:20;99146.22;;;30.65;27.28
23118;BME280;11728;50.624;6.014;2022-08-07T08:46:42;99139.44;;;30.89;26.16
23118;BME280;11728;50.624;6.014;2022-08-07T08:51:56;99127.56;;;31.19;26.23
23118;BME280;11728;50.624;6.014;2022-08-07T08:57:05;99130.78;;;31.61;25.59
23118;BME280;11728;50.624;6.014;2022-08-07T09:02:31;99132.19;;;31.84;25.13
23118;BME280;11728;50.624;6.014;2022-08-07T09:08:00;99122.69;;;31.79;24.90
23118;BME280;11728;50.624;6.014;2022-08-07T09:13:20;99125.66;;;32.23;24.04
23118;BME280;11728;50.624;6.014;2022-08-07T09:29:25;99110.50;;;32.38;24.37
23118;BME280;11728;50.624;6.014;2022-08-07T09:40:23;99101.19;;;33.11;23.32
23118;BME280;11728;50.624;6.014;2022-08-07T09:50:55;99096.66;;;33.37;22.81
23118;BME280;11728;50.624;6.014;2022-08-07T10:17:43;99059.63;;;34.85;20.47
23118;BME280;11728;50.624;6.014;2022-08-07T10:44:38;99057.16;;;35.39;19.94
23118;BME280;11728;50.624;6.014;2022-08-07T10:50:05;99053.91;;;35.44;20.16
23118;BME280;11728;50.624;6.014;2022-08-07T10:55:40;99048.03;;;35.95;19.46
23118;BME280;11728;50.624;6.014;2022-08-07T11:01:03;99045.31;;;36.03;19.90
23118;BME280;11728;50.624;6.014;2022-08-07T11:06:15;99032.63;;;35.86;19.80
23118;BME280;11728;50.624;6.014;2022-08-07T11:11:21;99032.84;;;36.38;18.82
23118;BME280;11728;50.624;6.014;2022-08-07T11:16:28;99021.81;;;36.46;18.99
23118;BME280;11728;50.624;6.014;2022-08-07T11:21:57;99016.28;;;36.92;19.10
23118;BME280;11728;50.624;6.014;2022-08-07T11:32:29;99018.06;;;36.78;18.67
23118;BME280;11728;50.624;6.014;2022-08-07T12:10:00;99006.03;;;36.24;18.86
23118;BME280;11728;50.624;6.014;2022-08-07T12:15:23;99003.47;;;36.61;18.78
23118;BME280;11728;50.624;6.014;2022-08-07T12:20:34;99006.13;;;36.55;18.75
23118;BME280;11728;50.624;6.014;2022-08-07T12:32:02;98998.63;;;36.71;17.64
23118;BME280;11728;50.624;6.014;2022-08-07T12:37:06;98996.66;;;36.80;17.58
23118;BME280;11728;50.624;6.014;2022-08-07T12:42:09;98992.13;;;36.64;17.79
23118;BME280;11728;50.624;6.014;2022-08-07T12:57:36;98982.09;;;37.24;17.84
23118;BME280;11728;50.624;6.014;2022-08-07T13:03:05;98985.09;;;37.37;17.01
23118;BME280;11728;50.624;6.014;2022-08-07T13:13:26;98966.16;;;37.11;17.38
23118;BME280;11728;50.624;6.014;2022-08-07T13:24:07;98960.78;;;36.27;17.91
23118;BME280;11728;50.624;6.014;2022-08-07T13:29:16;98956.94;;;35.98;17.94
23118;BME280;11728;50.624;6.014;2022-08-07T13:45:05;98944.63;;;35.14;19.26
23118;BME280;11728;50.624;6.014;2022-08-07T13:50:10;98944.63;;;34.90;18.63
23118;BME280;11728;50.624;6.014;2022-08-07T13:55:18;98944.59;;;34.74;18.81
23118;BME280;11728;50.624;6.014;2022-08-07T14:00:19;98937.03;;;34.19;18.98
23118;BME280;11728;50.624;6.014;2022-08-07T14:05:21;98927.41;;;33.31;19.70
23118;BME280;11728;50.624;6.014;2022-08-07T14:10:24;98935.97;;;32.93;19.69
23118;BME280;11728;50.624;6.014;2022-08-07T14:15:36;98921.09;;;32.79;19.80
23118;BME280;11728;50.624;6.014;2022-08-07T14:20:40;98921.81;;;32.19;20.46
23118;BME280;11728;50.624;6.014;2022-08-07T14:25:43;98921.81;;;31.92;20.93
23118;BME280;11728;50.624;6.014;2022-08-07T14:30:49;98918.13;;;31.74;20.76
23118;BME280;11728;50.624;6.014;2022-08-07T14:35:57;98911.25;;;31.70;21.51
23118;BME280;11728;50.624;6.014;2022-08-07T14:40:59;98897.94;;;31.58;21.81
23118;BME280;11728;50.624;6.014;2022-08-07T14:46:01;98913.34;;;31.49;21.81
23118;BME280;11728;50.624;6.014;2022-08-07T14:51:16;98905.19;;;31.30;21.81
23118;BME280;11728;50.624;6.014;2022-08-07T14:56:20;98907.63;;;31.33;21.87
23118;BME280;11728;50.624;6.014;2022-08-07T15:01:28;98887.19;;;31.47;21.81
23118;BME280;11728;50.624;6.014;2022-08-07T15:06:32;98897.50;;;31.62;21.98
23118;BME280;11728;50.624;6.014;2022-08-07T15:11:40;98892.84;;;31.26;22.13
23118;BME280;11728;50.624;6.014;2022-08-07T15:16:46;98898.34;;;30.89;21.92
23118;BME280;11728;50.624;6.014;2022-08-07T15:21:49;98896.94;;;30.85;22.31
23118;BME280;11728;50.624;6.014;2022-08-07T15:27:13;98905.38;;;30.44;22.86
23118;BME280;11728;50.624;6.014;2022-08-07T15:32:19;98886.13;;;30.27;22.95
23118;BME280;11728;50.624;6.014;2022-08-07T15:37:24;98890.53;;;29.99;22.80
23118;BME280;11728;50.624;6.014;2022-08-07T15:47:48;98878.09;;;29.76;24.03
23118;BME280;11728;50.624;6.014;2022-08-07T15:52:50;98872.47;;;29.68;24.00
23118;BME280;11728;50.624;6.014;2022-08-07T15:57:52;98872.91;;;29.34;24.21
23118;BME280;11728;50.624;6.014;2022-08-07T16:02:56;98868.53;;;29.22;24.43
23118;BME280;11728;50.624;6.014;2022-08-07T16:08:03;98867.50;;;29.14;24.60
23118;BME280;11728;50.624;6.014;2022-08-07T16:33:46;98859.25;;;28.23;27.19
23118;BME280;11728;50.624;6.014;2022-08-07T16:44:36;98872.41;;;27.74;28.28
23118;BME280;11728;50.624;6.014;2022-08-07T16:54:58;98866.63;;;27.35;29.40
23118;BME280;11728;50.624;6.014;2022-08-07T17:00:10;98872.81;;;27.26;29.77
23118;BME280;11728;50.624;6.014;2022-08-07T17:05:26;98867.00;;;27.09;29.80
23118;BME280;11728;50.624;6.014;2022-08-07T17:10:48;98868.00;;;26.62;30.75
23118;BME280;11728;50.624;6.014;2022-08-07T17:21:39;98878.84;;;26.05;31.16
23118;BME280;11728;50.624;6.014;2022-08-07T17:38:05;98869.00;;;25.32;32.79
23118;BME280;11728;50.624;6.014;2022-08-07T17:43:12;98876.69;;;25.13;32.78
23118;BME280;11728;50.624;6.014;2022-08-07T17:48:47;98875.03;;;24.98;33.29
23118;BME280;11728;50.624;6.014;2022-08-07T17:54:16;98881.66;;;24.82;33.52
23118;BME280;11728;50.624;6.014;2022-08-07T17:59:26;98878.16;;;24.68;33.82
23118;BME280;11728;50.624;6.014;2022-08-07T18:04:36;98884.09;;;24.48;34.02
23118;BME280;11728;50.624;6.014;2022-08-07T18:09:46;98877.00;;;24.33;34.65
23118;BME280;11728;50.624;6.014;2022-08-07T18:15:11;98890.66;;;24.05;34.98
23118;BME280;11728;50.624;6.014;2022-08-07T18:20:24;98894.38;;;23.90;35.46
23118;BME280;11728;50.624;6.014;2022-08-07T18:25:29;98900.19;;;23.70;36.09
23118;BME280;11728;50.624;6.014;2022-08-07T18:41:03;98909.66;;;22.94;38.16
23118;BME280;11728;50.624;6.014;2022-08-07T18:51:49;98927.28;;;22.56;38.94
23118;BME280;11728;50.624;6.014;2022-08-07T18:56:51;98937.06;;;22.43;39.32
23118;BME280;11728;50.624;6.014;2022-08-07T19:02:04;98939.53;;;22.32;40.08
23118;BME280;11728;50.624;6.014;2022-08-07T19:07:15;98949.63;;;22.13;39.67
23118;BME280;11728;50.624;6.014;2022-08-07T19:23:42;98958.44;;;21.54;41.93
23118;BME280;11728;50.624;6.014;2022-08-07T19:28:55;98961.91;;;21.40;42.35
23118;BME280;11728;50.624;6.014;2022-08-07T19:34:00;98971.44;;;21.30;42.49
23118;BME280;11728;50.624;6.014;2022-08-07T19:39:05;98983.72;;;21.19;42.76
23118;BME280;11728;50.624;6.014;2022-08-07T19:44:08;98991.31;;;21.11;42.97
23118;BME280;11728;50.624;6.014;2022-08-07T19:49:15;98991.81;;;21.02;43.48
23118;BME280;11728;50.624;6.014;2022-08-07T19:54:16;99001.47;;;20.89;43.86
23118;BME280;11728;50.624;6.014;2022-08-07T19:59:24;98993.22;;;20.75;44.45
23118;BME280;11728;50.624;6.014;2022-08-07T20:04:33;98998.41;;;20.61;45.45
23118;BME280;11728;50.624;6.014;2022-08-07T20:09:42;99005.34;;;20.48;45.67
23118;BME280;11728;50.624;6.014;2022-08-07T20:14:45;98997.44;;;20.28;45.78
23118;BME280;11728;50.624;6.014;2022-08-07T20:19:48;99010.50;;;20.17;46.00
23118;BME280;11728;50.624;6.014;2022-08-07T20:24:54;99013.91;;;20.04;46.43
23118;BME280;11728;50.624;6.014;2022-08-07T20:29:57;99012.28;;;19.82;46.92
23118;BME280;11728;50.624;6.014;2022-08-07T20:35:07;99010.75;;;19.58;47.70
23118;BME280;11728;50.624;6.014;2022-08-07T20:40:10;99014.44;;;19.37;48.33
23118;BME280;11728;50.624;6.014;2022-08-07T20:45:13;99009.94;;;19.19;48.79
23118;BME280;11728;50.624;6.014;2022-08-07T20:50:19;99007.91;;;19.04;49.27
23118;BME280;11728;50.624;6.014;2022-08-07T20:55:21;99006.94;;;18.87;49.47
23118;BME280;11728;50.624;6.014;2022-08-07T21:00:29;99012.97;;;18.72;50.18
23118;BME280;11728;50.624;6.014;2022-08-07T21:05:45;99007.25;;;18.59;50.43
23118;BME280;11728;50.624;6.014;2022-08-07T21:10:48;99006.78;;;18.50;50.63
23118;BME280;11728;50.624;6.014;2022-08-07T21:15:52;99017.13;;;18.38;51.34
23118;BME280;11728;50.624;6.014;2022-08-07T21:20:55;99014.16;;;18.24;51.87
23118;BME280;11728;50.624;6.014;2022-08-07T21:26:12;99021.03;;;18.08;52.36
23118;BME280;11728;50.624;6.014;2022-08-07T21:31:43;99026.84;;;17.96;52.47
23118;BME280;11728;50.624;6.014;2022-08-07T21:36:51;99021.19;;;17.82;53.25
23118;BME280;11728;50.624;6.014;2022-08-07T21:41:59;99032.50;;;17.67;53.60
23118;BME280;11728;50.624;6.014;2022-08-07T21:47:12;99039.50;;;17.48;55.19
23118;BME280;11728;50.624;6.014;2022-08-07T21:52:43;99038.50;;;17.28;55.63
23118;BME280;11728;50.624;6.014;2022-08-07T21:58:03;99040.59;;;17.18;56.41
23118;BME280;11728;50.624;6.014;2022-08-07T22:03:20;99054.28;;;17.09;56.66
23118;BME280;11728;50.624;6.014;2022-08-07T22:08:25;99045.97;;;16.94;57.10
23118;BME280;11728;50.624;6.014;2022-08-07T22:13:32;99049.19;;;16.79;57.65
23118;BME280;11728;50.624;6.014;2022-08-07T22:18:57;99054.16;;;16.64;58.73
23118;BME280;11728;50.624;6.014;2022-08-07T22:24:11;99056.22;;;16.56;58.66
23118;BME280;11728;50.624;6.014;2022-08-07T22:34:42;99048.03;;;16.36;58.67
23118;BME280;11728;50.624;6.014;2022-08-07T22:44:58;99056.56;;;16.19;59.21
23118;BME280;11728;50.624;6.014;2022-08-07T23:01:20;99067.31;;;15.89;60.20
23118;BME280;11728;50.624;6.014;2022-08-07T23:22:28;99066.75;;;15.51;61.75
23118;BME280;11728;50.624;6.014;2022-08-07T23:38:44;99083.63;;;15.20;63.35
